createdAt,value
2019-03-22T00:00:32.880Z,69.44
2019-03-22T00:03:39.735Z,69.45
2019-03-22T00:06:46.555Z,67.30
2019-03-22T00:09:53.601Z,68.97
2019-03-22T00:13:02.059Z,66.24
2019-03-22T00:16:08.852Z,67.64
2019-03-22T00:19:15.806Z,66.52
2019-03-22T00:22:22.697Z,66.51
2019-03-22T00:25:29.557Z,66.51
2019-03-22T00:28:36.416Z,67.75
2019-03-22T00:31:43.354Z,66.57
2019-03-22T00:34:50.231Z,68.52
2019-03-22T00:37:57.318Z,68.15
2019-03-22T00:41:04.187Z,66.95
2019-03-22T00:44:11.087Z,65.52
2019-03-22T00:47:18.117Z,64.54
2019-03-22T00:50:26.285Z,65.10
2019-03-22T00:53:33.043Z,62.83
2019-03-22T00:56:40.256Z,63.90
2019-03-22T00:59:47.275Z,63.54
2019-03-22T01:02:54.657Z,64.00
2019-03-22T01:06:01.449Z,62.08
2019-03-22T01:09:08.545Z,63.69
2019-03-22T01:12:15.581Z,59.73
2019-03-22T01:15:22.760Z,59.73
2019-03-22T01:18:29.550Z,60.80
2019-03-22T01:21:36.538Z,57.16
2019-03-22T01:24:43.561Z,60.10
2019-03-22T01:27:50.691Z,60.10
2019-03-22T01:30:57.557Z,58.60
2019-03-22T01:34:04.573Z,59.49
2019-03-22T01:37:11.634Z,61.11
2019-03-22T01:40:18.536Z,55.98
2019-03-22T01:43:25.437Z,57.68
2019-03-22T01:46:32.232Z,58.77
2019-03-22T01:49:40.189Z,55.78
2019-03-22T01:52:47.110Z,55.89
2019-03-22T01:55:54.037Z,59.11
2019-03-22T01:59:01.111Z,59.50
2019-03-22T02:02:08.090Z,58.19
2019-03-22T02:05:16.618Z,59.43
2019-03-22T02:08:23.510Z,57.73
2019-03-22T02:11:30.473Z,55.85
2019-03-22T02:14:37.492Z,58.19
2019-03-22T02:17:44.395Z,57.41
2019-03-22T02:20:51.267Z,59.02
2019-03-22T02:23:58.347Z,56.08
2019-03-22T02:27:05.323Z,53.64
2019-03-22T02:30:12.820Z,58.38
2019-03-22T02:33:19.624Z,58.33
2019-03-22T02:36:26.566Z,59.67
2019-03-22T02:39:33.462Z,58.04
2019-03-22T02:42:40.645Z,58.73
2019-03-22T02:45:47.499Z,56.51
2019-03-22T02:48:54.625Z,56.28
2019-03-22T02:52:01.482Z,55.36
2019-03-22T02:55:08.788Z,57.49
2019-03-22T02:58:20.933Z,54.59
2019-03-22T03:01:24.274Z,57.25
2019-03-22T03:04:31.172Z,56.41
2019-03-22T03:07:38.568Z,55.41
2019-03-22T03:10:45.427Z,56.21
2019-03-22T03:13:52.444Z,56.62
2019-03-22T03:16:59.566Z,55.41
2019-03-22T03:20:08.755Z,53.83
2019-03-22T03:23:15.558Z,57.39
2019-03-22T03:26:22.539Z,59.35
2019-03-22T03:29:29.473Z,60.08
2019-03-22T03:32:36.424Z,57.41
2019-03-22T03:35:43.307Z,55.39
2019-03-22T03:38:50.702Z,56.09
2019-03-22T03:41:57.648Z,55.24
2019-03-22T03:45:05.199Z,54.84
2019-03-22T03:48:12.009Z,54.29
2019-03-22T03:51:18.988Z,57.09
2019-03-22T03:54:25.867Z,54.98
2019-03-22T03:57:32.728Z,55.95
2019-03-22T04:00:39.525Z,54.57
2019-03-22T04:03:46.364Z,56.54
2019-03-22T04:06:53.362Z,56.63
2019-03-22T04:10:01.321Z,56.51
2019-03-22T04:13:08.173Z,56.13
2019-03-22T04:16:15.488Z,57.23
2019-03-22T04:19:23.693Z,56.81
2019-03-22T04:22:31.207Z,57.19
2019-03-22T04:25:38.033Z,57.01
2019-03-22T04:28:45.099Z,57.57
2019-03-22T04:31:52.017Z,58.08
2019-03-22T04:34:58.855Z,58.19
2019-03-22T04:38:05.654Z,56.23
2019-03-22T04:41:12.739Z,57.64
2019-03-22T04:44:19.678Z,57.13
2019-03-22T04:47:26.849Z,58.66
2019-03-22T04:50:35.945Z,58.08
2019-03-22T04:53:46.780Z,58.34
2019-03-22T04:56:53.689Z,58.88
2019-03-22T05:00:01.393Z,59.00
2019-03-22T05:03:09.520Z,57.80
2019-03-22T05:06:18.364Z,59.02
2019-03-22T05:09:28.368Z,58.86
2019-03-22T05:12:36.026Z,58.63
2019-03-22T05:15:43.051Z,60.02
2019-03-22T05:18:50.819Z,60.20
2019-03-22T05:21:58.398Z,60.39
2019-03-22T05:25:05.767Z,60.75
2019-03-22T05:28:12.857Z,60.09
2019-03-22T05:31:51.003Z,60.01
2019-03-22T05:34:58.026Z,58.88
2019-03-22T05:38:05.111Z,59.31
2019-03-22T05:41:13.759Z,58.28
2019-03-22T05:44:20.938Z,58.79
2019-03-22T05:47:28.154Z,59.47
2019-03-22T05:50:35.057Z,59.96
2019-03-22T05:53:41.926Z,59.89
2019-03-22T05:56:49.036Z,58.65
2019-03-22T05:59:56.297Z,59.88
2019-03-22T06:03:03.647Z,59.90
2019-03-22T06:06:10.495Z,58.84
2019-03-22T06:09:17.527Z,58.70
2019-03-22T06:12:24.554Z,58.55
2019-03-22T06:15:31.956Z,58.93
2019-03-22T06:18:39.069Z,58.64
2019-03-22T06:21:46.073Z,58.69
2019-03-22T06:24:53.400Z,58.42
2019-03-22T06:28:00.304Z,58.55
2019-03-22T06:31:08.054Z,58.46
2019-03-22T06:34:15.304Z,58.54
2019-03-22T06:37:22.251Z,58.26
2019-03-22T06:40:29.090Z,58.47
2019-03-22T06:43:35.860Z,58.33
2019-03-22T06:46:42.931Z,58.51
2019-03-22T06:49:49.882Z,58.28
2019-03-22T06:52:56.892Z,58.28
2019-03-22T06:56:03.808Z,57.80
2019-03-22T06:59:10.618Z,58.25
2019-03-22T07:02:18.627Z,58.15
2019-03-22T07:05:28.822Z,58.34
2019-03-22T07:08:35.605Z,57.42
2019-03-22T07:11:42.559Z,58.24
2019-03-22T07:14:49.541Z,57.87
2019-03-22T07:17:57.825Z,57.36
2019-03-22T07:21:04.757Z,56.31
2019-03-22T07:24:11.767Z,56.18
2019-03-22T07:27:18.878Z,57.14
2019-03-22T07:30:25.727Z,54.27
2019-03-22T07:33:32.632Z,54.35
2019-03-22T07:36:39.656Z,54.25
2019-03-22T07:39:46.690Z,53.68
2019-03-22T07:42:53.483Z,53.53
2019-03-22T07:46:00.359Z,54.40
2019-03-22T07:49:07.333Z,54.20
2019-03-22T07:52:14.354Z,54.20
2019-03-22T07:55:21.253Z,51.00
2019-03-22T07:58:28.160Z,52.21
2019-03-22T08:01:35.918Z,49.99
2019-03-22T08:04:43.929Z,50.47
2019-03-22T08:07:51.136Z,49.19
2019-03-22T08:10:58.033Z,49.67
2019-03-22T08:14:04.980Z,48.89
2019-03-22T08:17:11.971Z,46.94
2019-03-22T08:20:20.608Z,48.68
2019-03-22T08:23:27.530Z,46.98
2019-03-22T08:26:34.507Z,47.65
2019-03-22T08:29:42.539Z,45.86
2019-03-22T08:32:50.607Z,45.86
2019-03-22T08:35:57.634Z,46.05
2019-03-22T08:39:06.244Z,44.76
2019-03-22T08:42:13.345Z,41.24
2019-03-22T08:45:20.365Z,41.24
2019-03-22T08:48:27.173Z,38.90
2019-03-22T08:51:34.045Z,39.57
2019-03-22T08:54:41.090Z,37.89
2019-03-22T08:57:49.791Z,38.87
2019-03-22T09:00:58.336Z,38.81
2019-03-22T09:04:06.675Z,37.67
2019-03-22T09:07:13.700Z,36.88
2019-03-22T09:10:20.703Z,39.20
2019-03-22T09:13:27.540Z,36.28
2019-03-22T09:16:34.491Z,36.33
2019-03-22T09:19:41.434Z,36.37
2019-03-22T09:22:48.613Z,34.21
2019-03-22T09:25:55.408Z,33.85
2019-03-22T09:29:02.304Z,35.37
2019-03-22T09:32:10.024Z,34.67
2019-03-22T09:35:16.977Z,33.84
2019-03-22T09:38:23.968Z,31.88
2019-03-22T09:41:30.840Z,33.89
2019-03-22T09:44:43.199Z,33.29
2019-03-22T09:47:46.460Z,34.86
2019-03-22T09:50:53.490Z,34.10
2019-03-22T09:54:00.490Z,33.75
2019-03-22T09:57:07.523Z,32.89
2019-03-22T10:00:24.238Z,32.30
2019-03-22T10:03:31.150Z,32.73
2019-03-22T10:06:38.089Z,30.49
2019-03-22T10:09:45.157Z,30.51
2019-03-22T10:12:52.258Z,29.00
2019-03-22T10:16:00.221Z,30.75
2019-03-22T10:19:07.062Z,30.96
2019-03-22T10:22:14.130Z,28.12
2019-03-22T10:25:23.388Z,29.14
2019-03-22T10:28:30.519Z,28.89
2019-03-22T10:31:37.969Z,29.58
2019-03-22T10:34:45.556Z,26.47
2019-03-22T10:38:00.127Z,27.27
2019-03-22T10:41:01.086Z,27.98
2019-03-22T10:44:08.100Z,26.86
2019-03-22T10:47:17.979Z,26.86
2019-03-22T10:50:23.841Z,27.71
2019-03-22T10:53:30.728Z,26.27
2019-03-22T10:56:37.707Z,26.36
2019-03-22T10:59:44.722Z,23.83
2019-03-22T11:02:51.635Z,22.32
2019-03-22T11:05:58.527Z,24.04
2019-03-22T11:09:08.948Z,23.64
2019-03-22T11:12:15.997Z,21.28
2019-03-22T11:15:24.077Z,22.10
2019-03-22T11:18:37.460Z,22.26
2019-03-22T11:21:39.688Z,22.73
2019-03-22T11:24:46.672Z,20.80
2019-03-22T11:27:54.776Z,22.59
2019-03-22T11:31:05.004Z,22.72
2019-03-22T11:34:10.268Z,22.19
2019-03-22T11:37:17.450Z,19.04
2019-03-22T11:40:24.365Z,21.85
2019-03-22T11:43:31.246Z,22.01
2019-03-22T11:46:38.319Z,21.21
2019-03-22T11:49:45.495Z,20.96
2019-03-22T11:52:52.420Z,20.31
2019-03-22T11:55:59.219Z,22.02
2019-03-22T11:59:06.144Z,22.29
2019-03-22T12:02:22.195Z,22.87
2019-03-22T12:05:23.092Z,23.16
2019-03-22T12:08:30.150Z,22.32
2019-03-22T12:11:38.100Z,22.32
2019-03-22T12:14:45.011Z,21.92
2019-03-22T12:17:52.042Z,19.11
2019-03-22T12:20:59.177Z,20.48
2019-03-22T12:24:06.199Z,19.98
2019-03-22T12:27:13.192Z,20.17
2019-03-22T12:30:20.433Z,20.89
2019-03-22T12:33:27.298Z,19.96
2019-03-22T12:36:34.270Z,20.34
2019-03-22T12:39:42.016Z,19.05
2019-03-22T12:42:49.318Z,21.14
2019-03-22T12:45:56.254Z,21.18
2019-03-22T12:49:03.123Z,21.49
2019-03-22T12:52:10.472Z,21.67
2019-03-22T12:55:17.580Z,22.64
2019-03-22T12:58:24.484Z,21.61
2019-03-22T13:01:31.549Z,20.95
2019-03-22T13:04:38.467Z,22.02
2019-03-22T13:07:45.383Z,22.86
2019-03-22T13:10:52.268Z,21.31
2019-03-22T13:14:01.023Z,21.80
2019-03-22T13:17:08.012Z,23.58
2019-03-22T13:20:15.127Z,23.58
2019-03-22T13:23:22.212Z,23.51
2019-03-22T13:26:29.092Z,23.99
2019-03-22T13:29:36.358Z,24.74
2019-03-22T13:32:51.917Z,24.74
2019-03-22T13:35:52.144Z,26.39
2019-03-22T13:38:59.094Z,26.26
2019-03-22T13:42:06.483Z,25.82
2019-03-22T13:45:13.680Z,27.76
2019-03-22T13:48:20.663Z,25.93
2019-03-22T13:51:27.614Z,26.17
2019-03-22T13:54:34.673Z,27.76
2019-03-22T13:57:41.593Z,28.37
2019-03-22T14:00:48.452Z,28.07
2019-03-22T14:03:56.899Z,27.53
2019-03-22T14:07:03.791Z,26.77
2019-03-22T14:10:12.598Z,27.67
2019-03-22T14:13:19.521Z,26.28
2019-03-22T14:16:26.363Z,26.94
2019-03-22T14:19:33.324Z,27.66
2019-03-22T14:22:40.272Z,27.96
2019-03-22T14:25:47.212Z,28.62
2019-03-22T14:28:54.311Z,28.78
2019-03-22T14:32:01.240Z,29.75
2019-03-22T14:35:09.300Z,28.35
2019-03-22T14:38:16.193Z,27.61
2019-03-22T14:41:23.249Z,28.16
2019-03-22T14:44:31.498Z,28.28
2019-03-22T14:47:39.556Z,27.59
2019-03-22T14:50:48.033Z,27.66
2019-03-22T14:53:54.962Z,28.44
2019-03-22T14:57:01.897Z,28.29
2019-03-22T15:00:09.268Z,27.76
2019-03-22T15:03:26.339Z,27.95
2019-03-22T15:06:34.753Z,27.85
2019-03-22T15:09:42.774Z,27.14
2019-03-22T15:12:51.712Z,27.19
2019-03-22T15:16:18.617Z,27.99
2019-03-22T15:19:49.169Z,29.18
2019-03-22T15:23:30.227Z,29.55
2019-03-22T15:26:56.082Z,29.79
2019-03-22T15:30:29.440Z,30.07
2019-03-22T15:33:54.288Z,29.52
2019-03-22T15:37:27.696Z,29.48
2019-03-22T15:40:37.344Z,29.73
2019-03-22T15:43:44.541Z,29.96
2019-03-22T15:46:54.564Z,30.49
2019-03-22T15:50:03.853Z,30.24
2019-03-22T15:53:15.353Z,31.05
2019-03-22T15:56:22.655Z,30.71
2019-03-22T15:59:33.406Z,31.19
2019-03-22T16:02:40.356Z,31.83
2019-03-22T16:05:47.980Z,32.00
2019-03-22T16:08:55.059Z,33.16
2019-03-22T16:12:02.229Z,33.96
2019-03-22T16:15:11.932Z,34.33
2019-03-22T16:18:20.401Z,35.31
2019-03-22T16:21:27.459Z,35.09
2019-03-22T16:24:35.923Z,36.55
2019-03-22T16:27:42.830Z,35.75
2019-03-22T16:30:49.646Z,35.79
2019-03-22T16:33:56.519Z,37.44
2019-03-22T16:37:04.869Z,38.43
2019-03-22T16:40:12.180Z,40.13
2019-03-22T16:43:19.649Z,40.33
2019-03-22T16:46:26.496Z,41.21
2019-03-22T16:49:33.541Z,40.91
2019-03-22T16:52:40.449Z,40.95
2019-03-22T16:55:47.370Z,41.84
2019-03-22T16:58:54.289Z,42.87
2019-03-22T17:02:01.305Z,42.87
2019-03-22T17:05:09.321Z,43.37
2019-03-22T17:08:16.300Z,43.70
2019-03-22T17:11:33.612Z,44.24
2019-03-22T17:14:41.767Z,44.05
2019-03-22T17:17:48.607Z,44.67
2019-03-22T17:20:56.061Z,44.40
2019-03-22T17:24:03.246Z,45.00
2019-03-22T17:27:10.258Z,45.00
2019-03-22T17:30:17.324Z,44.81
2019-03-22T17:33:26.451Z,45.18
2019-03-22T17:36:33.317Z,45.31
2019-03-22T17:39:40.705Z,45.36
2019-03-22T17:42:47.954Z,45.73
2019-03-22T17:45:54.992Z,45.98
2019-03-22T17:49:05.086Z,46.14
2019-03-22T17:52:14.508Z,46.40
2019-03-22T17:55:21.441Z,47.00
2019-03-22T17:58:28.392Z,47.68
2019-03-22T18:01:35.565Z,47.45
2019-03-22T18:04:42.521Z,47.70
2019-03-22T18:07:49.515Z,48.34
2019-03-22T18:10:56.383Z,49.24
2019-03-22T18:14:03.345Z,50.02
2019-03-22T18:17:10.711Z,49.67
2019-03-22T18:20:19.616Z,51.07
2019-03-22T18:23:35.486Z,51.83
2019-03-22T18:26:38.239Z,52.41
2019-03-22T18:29:45.270Z,52.67
2019-03-22T18:32:52.159Z,53.42
2019-03-22T18:36:00.841Z,53.78
2019-03-22T18:39:09.652Z,54.17
2019-03-22T18:42:18.105Z,55.15
2019-03-22T18:45:24.904Z,55.64
2019-03-22T18:48:31.820Z,56.11
2019-03-22T18:51:38.854Z,57.09
2019-03-22T18:54:46.004Z,57.98
2019-03-22T18:57:53.065Z,59.19
2019-03-22T19:00:59.997Z,60.16
2019-03-22T19:04:07.410Z,61.20
2019-03-22T19:07:14.483Z,62.17
2019-03-22T19:10:22.240Z,62.17
2019-03-22T19:13:30.815Z,63.59
2019-03-22T19:16:38.199Z,63.96
2019-03-22T19:19:48.611Z,64.23
2019-03-22T19:22:56.649Z,64.30
2019-03-22T19:26:04.128Z,64.57
2019-03-22T19:29:11.245Z,64.57
2019-03-22T19:32:22.334Z,64.54
2019-03-22T19:35:33.283Z,64.89
2019-03-22T19:38:44.266Z,64.79
2019-03-22T19:41:53.962Z,64.97
2019-03-22T19:45:01.194Z,64.74
2019-03-22T19:48:12.297Z,64.59
2019-03-22T19:51:19.552Z,64.36
2019-03-22T19:54:28.191Z,64.60
2019-03-22T19:57:38.238Z,64.81
2019-03-22T20:00:47.378Z,65.32
2019-03-22T20:03:55.882Z,65.02
2019-03-22T20:07:06.299Z,64.75
2019-03-22T20:10:13.462Z,64.50
2019-03-22T20:13:23.351Z,64.25
2019-03-22T20:16:31.576Z,64.03
2019-03-22T20:19:40.520Z,63.70
2019-03-22T20:22:47.515Z,63.20
2019-03-22T20:25:56.112Z,63.10
2019-03-22T20:29:03.862Z,62.92
2019-03-22T20:32:11.024Z,62.68
2019-03-22T20:35:20.162Z,62.70
2019-03-22T20:38:27.135Z,62.75
2019-03-22T20:41:34.754Z,62.32
2019-03-22T20:44:42.397Z,62.36
2019-03-22T20:47:49.456Z,62.50
2019-03-22T20:50:56.359Z,62.54
2019-03-22T20:54:03.435Z,62.88
2019-03-22T20:57:11.251Z,63.00
2019-03-22T21:00:18.327Z,63.00
2019-03-22T21:03:37.616Z,63.47
2019-03-22T21:06:49.584Z,63.24
2019-03-22T21:09:56.755Z,63.44
2019-03-22T21:13:03.705Z,63.74
2019-03-22T21:16:11.613Z,64.07
2019-03-22T21:19:19.774Z,64.23
2019-03-22T21:22:27.953Z,64.21
2019-03-22T21:25:35.412Z,64.19
2019-03-22T21:28:42.246Z,64.90
2019-03-22T21:31:49.128Z,64.77
2019-03-22T21:34:56.460Z,64.81
2019-03-22T21:38:10.909Z,65.19
2019-03-22T21:41:13.837Z,65.42
2019-03-22T21:44:20.622Z,65.23
2019-03-22T21:47:27.612Z,65.48
2019-03-22T21:50:35.404Z,65.94
2019-03-22T21:53:42.232Z,66.20
2019-03-22T21:56:49.094Z,66.32
2019-03-22T21:59:56.033Z,66.41
2019-03-22T22:03:03.005Z,66.75
2019-03-22T22:06:10.015Z,66.77
2019-03-22T22:09:18.222Z,66.76
2019-03-22T22:12:25.322Z,66.83
2019-03-22T22:15:32.196Z,66.96
2019-03-22T22:18:39.126Z,67.02
2019-03-22T22:21:46.013Z,67.03
2019-03-22T22:24:52.973Z,67.60
2019-03-22T22:28:00.152Z,67.73
2019-03-22T22:31:07.349Z,68.08
2019-03-22T22:34:14.270Z,68.28
2019-03-22T22:37:21.404Z,68.89
2019-03-22T22:40:28.291Z,69.32
2019-03-22T22:43:36.673Z,69.43
2019-03-22T22:46:44.000Z,69.04
2019-03-22T22:49:50.982Z,69.80
2019-03-22T22:52:58.641Z,69.84
2019-03-22T22:56:05.606Z,70.33
2019-03-22T22:59:12.423Z,70.34
2019-03-22T23:02:19.428Z,70.81
2019-03-22T23:05:27.127Z,71.26
2019-03-22T23:08:33.915Z,71.09
2019-03-22T23:11:40.856Z,71.91
2019-03-22T23:14:47.872Z,71.57
2019-03-22T23:17:54.873Z,71.57
2019-03-22T23:21:01.727Z,72.15
2019-03-22T23:24:08.757Z,72.61
2019-03-22T23:27:15.824Z,72.80
2019-03-22T23:30:22.615Z,73.03
2019-03-22T23:33:29.539Z,73.24
2019-03-22T23:36:36.552Z,72.88
2019-03-22T23:39:43.608Z,73.48
2019-03-22T23:42:50.767Z,73.48
2019-03-22T23:45:57.539Z,73.21
2019-03-22T23:49:04.506Z,72.92
2019-03-22T23:52:11.488Z,73.84
2019-03-22T23:55:18.607Z,74.43
2019-03-22T23:58:25.473Z,74.17
